createdAt,value
2018-12-07T00:03:35.519Z,85.10
2018-12-07T00:13:37.988Z,84.80
2018-12-07T00:23:40.452Z,85.00
2018-12-07T00:33:42.911Z,84.80
2018-12-07T00:43:45.373Z,84.80
2018-12-07T00:53:47.839Z,84.50
2018-12-07T01:03:50.352Z,83.80
2018-12-07T01:13:52.824Z,84.00
2018-12-07T01:23:55.320Z,83.80
2018-12-07T01:33:57.779Z,83.90
2018-12-07T01:44:00.284Z,83.60
2018-12-07T01:54:02.752Z,83.40
2018-12-07T02:04:05.221Z,83.50
2018-12-07T02:14:07.686Z,83.20
2018-12-07T02:24:10.152Z,83.20
2018-12-07T02:34:12.613Z,83.00
2018-12-07T02:44:15.072Z,82.80
2018-12-07T02:54:17.540Z,82.70
2018-12-07T03:04:20.000Z,82.40
2018-12-07T03:14:22.461Z,82.20
2018-12-07T03:24:24.963Z,82.30
2018-12-07T03:34:27.509Z,82.10
2018-12-07T03:44:29.982Z,82.40
2018-12-07T03:54:32.444Z,82.20
2018-12-07T04:04:34.907Z,82.40
2018-12-07T04:14:37.376Z,82.20
2018-12-07T04:24:39.827Z,82.20
2018-12-07T04:34:42.293Z,82.10
2018-12-07T04:44:44.757Z,81.90
2018-12-07T04:54:47.259Z,81.90
2018-12-07T05:04:50.201Z,82.00
2018-12-07T05:14:52.666Z,82.40
2018-12-07T05:24:55.125Z,82.80
2018-12-07T05:34:57.575Z,83.20
2018-12-07T05:45:00.040Z,83.00
2018-12-07T05:55:02.555Z,83.00
2018-12-07T06:05:05.697Z,83.20
2018-12-07T06:15:08.236Z,83.60
2018-12-07T06:25:10.709Z,83.60
2018-12-07T06:35:13.195Z,83.50
2018-12-07T06:45:15.716Z,82.60
2018-12-07T06:55:18.210Z,82.50
2018-12-07T07:05:20.668Z,81.80
2018-12-07T07:15:23.157Z,81.40
2018-12-07T07:25:25.621Z,80.60
2018-12-07T07:35:28.083Z,79.80
2018-12-07T07:45:30.549Z,79.20
2018-12-07T07:55:33.021Z,78.50
2018-12-07T08:05:35.518Z,76.80
2018-12-07T08:15:37.979Z,76.00
2018-12-07T08:25:40.480Z,76.40
2018-12-07T08:35:42.971Z,76.20
2018-12-07T08:45:45.532Z,76.40
2018-12-07T08:55:48.036Z,76.20
2018-12-07T09:05:50.699Z,75.00
2018-12-07T09:15:53.272Z,75.60
2018-12-07T09:25:55.805Z,75.30
2018-12-07T09:35:58.290Z,74.50
2018-12-07T09:46:00.984Z,74.90
2018-12-07T09:56:03.534Z,74.00
2018-12-07T10:06:06.108Z,73.60
2018-12-07T10:16:08.682Z,72.50
2018-12-07T10:26:11.279Z,71.80
2018-12-07T10:36:13.752Z,71.10
2018-12-07T10:46:16.408Z,71.60
2018-12-07T10:56:18.908Z,72.00
2018-12-07T11:17:04.004Z,71.50
2018-12-07T11:27:10.565Z,71.40
2018-12-07T11:37:13.263Z,71.10
2018-12-07T11:47:15.792Z,70.40
2018-12-07T11:57:18.320Z,70.00
2018-12-07T12:07:20.788Z,68.80
2018-12-07T12:17:23.376Z,67.80
2018-12-07T12:27:25.846Z,66.10
2018-12-07T12:37:28.579Z,66.90
2018-12-07T12:47:31.284Z,67.20
2018-12-07T12:57:33.752Z,67.40
2018-12-07T13:07:36.216Z,67.50
2018-12-07T13:17:38.821Z,68.20
2018-12-07T13:27:41.277Z,69.50
2018-12-07T13:37:43.948Z,70.30
2018-12-07T13:47:46.485Z,71.10
2018-12-07T13:57:49.493Z,72.10
2018-12-07T14:07:51.952Z,72.50
2018-12-07T14:17:54.877Z,73.30
2018-12-07T14:27:57.653Z,74.30
2018-12-07T14:38:00.518Z,74.50
2018-12-07T14:48:03.313Z,74.60
2018-12-07T14:58:06.387Z,75.40
2018-12-07T15:08:09.198Z,75.40
2018-12-07T15:18:12.005Z,74.40
2018-12-07T15:28:14.620Z,73.20
2018-12-07T15:38:17.195Z,71.70
2018-12-07T15:48:20.019Z,73.10
2018-12-07T15:58:22.793Z,71.30
2018-12-07T16:08:25.406Z,70.40
2018-12-07T16:18:28.311Z,70.80
2018-12-07T16:28:30.882Z,69.20
2018-12-07T16:38:33.689Z,65.60
2018-12-07T16:48:36.598Z,65.70
2018-12-07T16:58:39.606Z,64.70
2018-12-07T17:08:42.362Z,64.90
2018-12-07T17:18:45.069Z,64.70
2018-12-07T17:28:48.117Z,63.90
2018-12-07T17:38:50.699Z,64.50
2018-12-07T17:48:53.196Z,64.30
2018-12-07T17:58:55.705Z,63.30
2018-12-07T18:08:58.418Z,64.30
2018-12-07T18:19:01.212Z,65.20
2018-12-07T18:29:04.120Z,65.90
2018-12-07T18:39:07.544Z,66.10
2018-12-07T18:49:10.498Z,65.80
2018-12-07T18:59:13.108Z,65.20
2018-12-07T19:09:15.606Z,64.90
2018-12-07T19:19:18.348Z,65.80
2018-12-07T19:29:20.903Z,67.10
2018-12-07T19:39:23.475Z,68.60
2018-12-07T19:49:26.304Z,70.30
2018-12-07T19:59:28.936Z,71.20
2018-12-07T20:09:31.542Z,72.20
2018-12-07T20:19:34.039Z,73.20
2018-12-07T20:29:36.673Z,74.40
2018-12-07T20:39:39.663Z,75.20
2018-12-07T20:49:42.235Z,75.70
2018-12-07T20:59:45.088Z,75.50
2018-12-07T21:09:47.692Z,74.30
2018-12-07T21:19:51.354Z,65.90
2018-12-07T21:29:55.272Z,65.60
2018-12-07T21:40:02.079Z,59.00
2018-12-07T21:50:08.935Z,60.20
2018-12-07T22:00:11.507Z,61.20
2018-12-07T22:10:14.134Z,59.40
2018-12-07T22:20:16.822Z,59.60
2018-12-07T22:30:19.894Z,59.70
2018-12-07T22:40:22.721Z,59.00
2018-12-07T22:50:25.400Z,58.10
2018-12-07T23:00:27.935Z,59.60
2018-12-07T23:10:30.425Z,59.00
2018-12-07T23:20:32.900Z,58.20
2018-12-07T23:30:35.361Z,57.70
2018-12-07T23:40:37.856Z,58.20
2018-12-07T23:50:40.317Z,58.80
